Flight Track Log - Related Links

Times and Time Zones

All times are in EDT time to prevent confusion due to time zone crossing. See the SWA1471 flight status page for this flight to view local times or setup timezone preferences in your user account.

Time Position Orientation Groundspeed Altitude Reporting Facility
EDT Latitude Longitude Course Direction KTS MPH feet Rate Location/Type
Thu 03:07:47 PM 33.6500 -117.8833 North 155 178 1,500  Level Southern California TRACON
Thu 03:09:23 PM 33.5797 -117.9033 193° South 170 196 3,600 1,671 Climbing Los Angeles Center
Thu 03:10:25 PM 33.5183 -117.9447 209° Southwest 238 274 5,900 3,120 Climbing Los Angeles Center
Thu 03:11:28 PM 33.4514 -117.9925 211° Southwest 267 307 10,100 3,888 Climbing Los Angeles Center
Thu 03:12:30 PM 33.3614 -118.0594 212° Southwest 312 359 14,000 3,629 Climbing Los Angeles Center
Thu 03:13:00 PM 33.4126 -118.4167 North  Level FlightAware Approximate
Thu 03:13:32 PM 33.3514 -118.1664 264° West 334 384 17,600  Level Los Angeles Center
Thu 03:14:34 PM 33.3611 -118.2831 276° West 347 399 20,700 2,903 Climbing Los Angeles Center
Thu 03:15:36 PM 33.3978 -118.3961 291° West 378 435 23,600 2,613 Climbing Los Angeles Center
Thu 03:16:38 PM 33.5114 -118.4225 349° North 426 490 26,100 2,371 Climbing Los Angeles Center
Thu 03:17:40 PM 33.6344 -118.4264 358° North 434 499 28,500 2,160 Climbing Los Angeles Center
Thu 03:18:43 PM 33.7681 -118.4286 359° North 454 522 30,600 2,112 Climbing Los Angeles Center
Thu 03:19:45 PM 33.8989 -118.4333 358° North 462 532 32,900 2,177 Climbing Los Angeles Center
Thu 03:20:47 PM 34.0481 -118.4522 354° North 445 512 35,100 1,500 Climbing Los Angeles Center
Thu 03:21:49 PM 34.1725 -118.4731 352° North 449 517 36,000 435 Climbing Los Angeles Center
Thu 03:22:51 PM 34.2958 -118.4944 352° North 450 518 36,000 823 Level Los Angeles Center
Thu 03:23:53 PM 34.4117 -118.5392 342° North 443 510 37,700 1,536 Climbing Los Angeles Center
Thu 03:24:56 PM 34.5225 -118.5942 338° Northwest 433 498 39,200 1,104 Climbing Los Angeles Center
Thu 03:25:58 PM 34.6550 -118.6614 337° Northwest 432 497 40,000 387 Climbing Los Angeles Center
Thu 03:27:00 PM 34.7658 -118.7175 337° Northwest 433 498 40,000  Level Los Angeles Center
Thu 03:28:02 PM 34.8772 -118.7725 338° Northwest 434 499 40,000  Level Los Angeles Center
Thu 03:29:04 PM 34.9989 -118.8331 338° Northwest 432 497 40,000  Level Los Angeles Center
Thu 03:30:06 PM 35.1100 -118.8903 337° Northwest 434 499 40,000  Level Los Angeles Center
Thu 03:31:08 PM 35.2236 -118.9478 338° Northwest 446 513 40,000  Level Los Angeles Center
Thu 03:32:11 PM 35.3358 -119.0053 337° Northwest 442 509 40,000  Level Los Angeles Center
Thu 03:33:13 PM 35.4492 -119.0628 338° Northwest 443 510 40,000  Level Los Angeles Center
Thu 03:34:15 PM 35.5864 -119.1333 337° Northwest 447 514 40,000  Level Los Angeles Center
Thu 03:35:17 PM 35.6964 -119.1914 337° Northwest 436 502 40,000  Level Los Angeles Center
Thu 03:36:19 PM 35.8092 -119.2489 338° Northwest 439 505 40,000  Level Los Angeles Center
Thu 03:37:21 PM 35.9211 -119.3083 337° Northwest 439 505 40,000  Level Los Angeles Center
Thu 03:38:24 PM 36.0328 -119.3667 337° Northwest 438 504 40,000  Level Los Angeles Center
Thu 03:39:26 PM 36.1614 -119.4478 333° Northwest 435 501 40,000  Level Los Angeles Center
Thu 03:40:28 PM 36.2664 -119.5214 331° Northwest 435 501 40,000 -145 Level Los Angeles Center
Thu 03:41:30 PM 36.3711 -119.5961 330° Northwest 436 502 39,700 -629 Descending Los Angeles Center
Thu 03:42:32 PM 36.4756 -119.6708 330° Northwest 435 501 38,700 -977 Descending Los Angeles Center
Thu 03:43:39 PM 36.5997 -119.7572 331° Northwest 433 498 37,600 -938 Descending Oakland Center
Thu 03:44:40 PM 36.7075 -119.8356 330° Northwest 448 516 36,700 -927 Descending Oakland Center
Thu 03:45:42 PM 36.8158 -119.9122 330° Northwest 448 516 35,700 -976 Descending Oakland Center
Thu 03:46:43 PM 36.9219 -119.9883 330° Northwest 443 510 34,700 -1,561 Descending Oakland Center
Thu 03:47:45 PM 37.0247 -120.0631 330° Northwest 430 495 32,500 -2,146 Descending Oakland Center
Thu 03:48:46 PM 37.1294 -120.1386 330° Northwest 417 480 30,300 -2,098 Descending Oakland Center
Thu 03:49:48 PM 37.2278 -120.2106 330° Northwest 409 471 28,200 -2,000 Descending Oakland Center
Thu 03:50:49 PM 37.3231 -120.2808 330° Northwest 398 458 26,200 -2,049 Descending Oakland Center
Thu 03:51:51 PM 37.4339 -120.3572 331° Northwest 379 436 24,000 -2,299 Descending Oakland Center
Thu 03:52:36 PM 37.5000 -120.4167 325° Northwest 370 426 22,100 -1,143 Descending Northern Cal TRACON
Thu 03:53:36 PM 37.5667 -120.5000 315° West 361 415 22,000 -200 Descending Northern Cal TRACON
Thu 03:54:36 PM 37.6500 -120.5667 328° Northwest 364 419 21,700 -532 Descending Northern Cal TRACON
Thu 03:54:55 PM 37.6722 -120.5950 315° West 362 417 21,300 -1,700 Descending Oakland Center
Thu 03:55:36 PM 37.7333 -120.6500 325° Northwest 357 411 20,000 -1,366 Descending Northern Cal TRACON
Thu 03:56:36 PM 37.8000 -120.7333 315° West 355 409 19,000 -458 Descending Northern Cal TRACON
Thu 03:58:00 PM 37.9028 -120.8278 324° Northwest 350 403 18,900 -497 Descending Oakland Center
Thu 03:59:01 PM 37.9800 -120.9075 321° Northwest 357 411 17,800 -878 Descending Oakland Center
Thu 04:00:03 PM 38.0583 -120.9858 322° Northwest 359 413 17,100 -341 Descending Oakland Center
Thu 04:01:04 PM 38.1364 -121.0947 312° West 352 405 17,100 -69 Level Oakland Center
Thu 04:01:30 PM 38.1667 -121.1333 315° West 349 402 17,000 -837 Descending Northern Cal TRACON
Thu 04:02:30 PM 38.2167 -121.2167 307° West 335 386 15,900 -1,050 Descending Northern Cal TRACON
Thu 04:03:30 PM 38.2833 -121.3167 310° West 335 386 14,900 -1,450 Descending Northern Cal TRACON
Thu 04:04:30 PM 38.3500 -121.4000 316° Northwest 332 382 13,000 -1,800 Descending Northern Cal TRACON
Thu 04:05:30 PM 38.4000 -121.4833 307° West 324 373 11,300 -1,350 Descending Northern Cal TRACON
Thu 04:06:30 PM 38.4500 -121.5667 307° West 292 336 10,300 -1,200 Descending Northern Cal TRACON
Thu 04:07:30 PM 38.5333 -121.6167 335° Northwest 282 325 8,900 -1,543 Descending Northern Cal TRACON
Thu 04:08:15 PM 38.5689 -121.6481 325° Northwest 280 322 7,600 -1,585 Descending Oakland Center
Thu 04:09:16 PM 38.6361 -121.6978 330° Northwest 278 320 6,100 -1,951 Descending Oakland Center
Thu 04:10:18 PM 38.7083 -121.7022 357° North 260 299 3,600 -1,610 Descending Oakland Center
Thu 04:11:19 PM 38.7600 -121.6850 15° North 220 253 2,800 -976 Descending Oakland Center
Thu 04:12:21 PM 38.7744 -121.6308 71° East 177 204 1,600 -1,024 Descending Oakland Center
Thu 04:13:22 PM 38.7428 -121.6008 144° Southeast 144 166 700 -738 Descending Oakland Center
Thu 04:14:23 PM 38.7133 -121.6011 180° South 138 159 100 -590 Descending Oakland Center

Login

Don't have an account? Register now (free) for customized features, flight alerts, and more!